createdAt,value
2023-05-16T00:01:18.248Z,100883.22
2023-05-16T00:03:45.416Z,100889.16
2023-05-16T00:06:12.169Z,100879.91
2023-05-16T00:08:38.777Z,100881.84
2023-05-16T00:11:05.416Z,100884.22
2023-05-16T00:13:32.069Z,100888.59
2023-05-16T00:16:02.408Z,100890.59
2023-05-16T00:18:29.094Z,100887.81
2023-05-16T00:20:56.314Z,100893.84
2023-05-16T00:23:22.725Z,100899.06
2023-05-16T00:25:49.222Z,100905.94
2023-05-16T00:28:15.811Z,100897.94
2023-05-16T00:30:42.228Z,100904.78
2023-05-16T00:33:08.797Z,100904.03
2023-05-16T00:35:35.273Z,100904.84
2023-05-16T00:38:01.677Z,100901.25
2023-05-16T00:40:28.474Z,100907.66
2023-05-16T00:42:54.965Z,100909.66
2023-05-16T00:45:21.576Z,100907.22
2023-05-16T00:47:48.357Z,100912.03
2023-05-16T00:50:15.136Z,100911.22
2023-05-16T00:52:41.784Z,100920.03
2023-05-16T00:55:10.443Z,100919.59
2023-05-16T00:57:38.591Z,100918.72
2023-05-16T01:00:12.266Z,100920.72
2023-05-16T01:02:38.689Z,100926.69
2023-05-16T01:05:05.501Z,100921.03
2023-05-16T01:07:32.120Z,100924.59
2023-05-16T01:09:59.010Z,100928.94
2023-05-16T01:12:33.730Z,100929.28
2023-05-16T01:15:13.529Z,100933.28
2023-05-16T01:18:01.005Z,100938.91
2023-05-16T01:20:36.766Z,100928.03
2023-05-16T01:23:15.482Z,100934.84
2023-05-16T01:25:45.627Z,100931.56
2023-05-16T01:28:16.385Z,100931.97
2023-05-16T01:30:43.105Z,100935.50
2023-05-16T01:33:10.417Z,100938.72
2023-05-16T01:35:43.617Z,100941.03
2023-05-16T01:38:26.341Z,100936.53
2023-05-16T01:41:02.294Z,100942.16
2023-05-16T01:43:42.709Z,100942.91
2023-05-16T01:46:31.590Z,100953.72
2023-05-16T01:49:08.732Z,100952.50
2023-05-16T01:51:39.928Z,100962.47
2023-05-16T01:54:11.146Z,100966.88
2023-05-16T01:56:38.113Z,100968.00
2023-05-16T01:59:05.478Z,100976.66
2023-05-16T02:01:32.165Z,100981.34
2023-05-16T02:03:59.056Z,100973.97
2023-05-16T02:06:26.524Z,100985.44
2023-05-16T02:08:53.150Z,100986.03
2023-05-16T02:11:19.837Z,100988.34
2023-05-16T02:13:46.599Z,101008.63
2023-05-16T02:16:13.306Z,101001.59
2023-05-16T02:18:39.737Z,101000.28
2023-05-16T02:21:06.442Z,100996.53
2023-05-16T02:23:32.818Z,101009.19
2023-05-16T02:25:59.320Z,101000.25
2023-05-16T02:28:25.824Z,101010.16
2023-05-16T02:30:59.287Z,101008.34
2023-05-16T02:33:27.447Z,101007.47
2023-05-16T02:35:54.593Z,101004.94
2023-05-16T02:38:21.282Z,101012.50
2023-05-16T02:40:48.412Z,101010.78
2023-05-16T02:43:14.842Z,101021.91
2023-05-16T02:45:41.252Z,101021.44
2023-05-16T02:48:07.792Z,101027.41
2023-05-16T02:50:34.641Z,101026.59
2023-05-16T02:53:02.376Z,101037.81
2023-05-16T02:55:29.297Z,101037.00
2023-05-16T02:57:55.681Z,101036.19
2023-05-16T03:00:22.663Z,101042.97
2023-05-16T03:02:49.466Z,101044.94
2023-05-16T03:05:16.956Z,101048.09
2023-05-16T03:07:43.333Z,101048.09
2023-05-16T03:10:09.882Z,101060.13
2023-05-16T03:12:36.452Z,101053.34
2023-05-16T03:15:04.030Z,101056.97
2023-05-16T03:17:30.796Z,101056.22
2023-05-16T03:19:57.311Z,101055.03
2023-05-16T03:22:24.713Z,101066.34
2023-05-16T03:24:51.316Z,101065.97
2023-05-16T03:27:17.705Z,101063.16
2023-05-16T03:29:44.044Z,101064.00
2023-05-16T03:32:12.706Z,101075.66
2023-05-16T03:34:39.324Z,101073.22
2023-05-16T03:37:06.461Z,101075.66
2023-05-16T03:39:32.804Z,101075.66
2023-05-16T03:41:59.356Z,101081.69
2023-05-16T03:44:25.759Z,101077.75
2023-05-16T03:46:52.878Z,101090.09
2023-05-16T03:49:20.887Z,101093.38
2023-05-16T03:51:47.359Z,101090.56
2023-05-16T03:54:13.946Z,101088.13
2023-05-16T03:56:40.461Z,101092.09
2023-05-16T03:59:07.067Z,101098.06
2023-05-16T04:01:33.480Z,101095.63
2023-05-16T04:04:00.238Z,101090.38
2023-05-16T04:06:27.206Z,101101.88
2023-05-16T04:08:53.773Z,101108.66
2023-05-16T04:11:20.120Z,101106.56
2023-05-16T04:13:46.567Z,101115.72
2023-05-16T04:16:13.030Z,101114.00
2023-05-16T04:18:39.565Z,101118.69
2023-05-16T04:21:06.233Z,101121.38
2023-05-16T04:23:32.896Z,101124.56
2023-05-16T04:25:59.771Z,101133.31
2023-05-16T04:28:26.355Z,101136.47
2023-05-16T04:30:53.835Z,101140.44
2023-05-16T04:33:20.214Z,101131.94
2023-05-16T04:35:46.586Z,101148.66
2023-05-16T04:38:13.140Z,101150.53
2023-05-16T04:40:41.702Z,101148.44
2023-05-16T04:43:08.245Z,101152.78
2023-05-16T04:45:36.745Z,101164.78
2023-05-16T04:48:04.304Z,101160.72
2023-05-16T04:50:30.708Z,101161.44
2023-05-16T04:52:57.479Z,101171.00
2023-05-16T04:55:24.331Z,101184.97
2023-05-16T04:57:51.123Z,101178.13
2023-05-16T05:00:17.676Z,101184.09
2023-05-16T05:02:44.883Z,101181.63
2023-05-16T05:05:11.392Z,101187.22
2023-05-16T05:07:38.399Z,101187.59
2023-05-16T05:10:07.313Z,101191.22
2023-05-16T05:12:34.165Z,101195.63
2023-05-16T05:15:00.563Z,101200.88
2023-05-16T05:17:27.124Z,101200.53
2023-05-16T05:19:53.839Z,101204.94
2023-05-16T05:22:20.591Z,101212.16
2023-05-16T05:24:47.028Z,101218.25
2023-05-16T05:27:13.564Z,101213.44
2023-05-16T05:29:40.226Z,101219.50
2023-05-16T05:32:07.105Z,101221.47
2023-05-16T05:34:33.519Z,101226.28
2023-05-16T05:37:00.097Z,101228.25
2023-05-16T05:39:26.833Z,101229.78
2023-05-16T05:41:53.256Z,101228.16
2023-05-16T05:44:19.688Z,101238.53
2023-05-16T05:46:46.370Z,101234.56
2023-05-16T05:49:12.998Z,101239.34
2023-05-16T05:51:39.631Z,101250.19
2023-05-16T05:54:06.311Z,101243.78
2023-05-16T05:56:32.718Z,101246.69
2023-05-16T05:58:59.529Z,101252.75
2023-05-16T06:01:26.002Z,101246.31
2023-05-16T06:03:52.338Z,101249.59
2023-05-16T06:06:19.934Z,101260.44
2023-05-16T06:08:46.338Z,101250.03
2023-05-16T06:11:12.726Z,101249.69
2023-05-16T06:13:39.110Z,101253.31
2023-05-16T06:16:07.508Z,101252.59
2023-05-16T06:18:35.640Z,101257.50
2023-05-16T06:21:03.975Z,101257.94
2023-05-16T06:23:31.186Z,101265.22
2023-05-16T06:25:58.211Z,101263.66
2023-05-16T06:28:26.209Z,101261.34
2023-05-16T06:30:52.608Z,101257.81
2023-05-16T06:33:19.432Z,101269.81
2023-05-16T06:35:46.377Z,101274.25
2023-05-16T06:38:12.885Z,101272.72
2023-05-16T06:40:41.162Z,101282.41
2023-05-16T06:43:09.551Z,101279.34
2023-05-16T06:45:36.410Z,101274.19
2023-05-16T06:48:02.893Z,101280.63
2023-05-16T06:50:29.548Z,101281.91
2023-05-16T06:52:58.368Z,101281.09
2023-05-16T06:55:26.437Z,101271.13
2023-05-16T06:57:53.052Z,101280.00
2023-05-16T07:00:19.918Z,101280.81
2023-05-16T07:02:46.892Z,101280.44
2023-05-16T07:05:16.707Z,101281.25
2023-05-16T07:07:43.428Z,101280.91
2023-05-16T07:10:10.373Z,101286.25
2023-05-16T07:12:39.018Z,101293.13
2023-05-16T07:15:08.060Z,101295.22
2023-05-16T07:17:35.263Z,101296.59
2023-05-16T07:20:05.120Z,101290.16
2023-05-16T07:22:32.033Z,101296.59
2023-05-16T07:25:00.874Z,101295.41
2023-05-16T07:27:28.196Z,101292.59
2023-05-16T07:29:54.827Z,101285.09
2023-05-16T07:32:21.434Z,101277.13
2023-05-16T07:34:48.256Z,101285.75
2023-05-16T07:37:16.397Z,101285.47
2023-05-16T07:39:43.018Z,101291.72
2023-05-16T07:42:09.830Z,101301.59
2023-05-16T07:44:36.361Z,101297.88
2023-05-16T07:47:05.379Z,101294.91
2023-05-16T07:49:31.849Z,101300.78
2023-05-16T07:51:58.552Z,101300.94
2023-05-16T07:54:25.090Z,101301.91
2023-05-16T07:56:51.462Z,101308.44
2023-05-16T07:59:18.026Z,101305.34
2023-05-16T08:01:45.083Z,101305.53
2023-05-16T08:04:13.100Z,101303.69
2023-05-16T08:06:40.808Z,101303.91
2023-05-16T08:09:09.525Z,101307.41
2023-05-16T08:11:36.483Z,101306.13
2023-05-16T08:14:03.649Z,101296.38
2023-05-16T08:16:31.313Z,101304.72
2023-05-16T08:18:58.623Z,101309.03
2023-05-16T08:21:25.326Z,101304.94
2023-05-16T08:23:51.866Z,101311.19
2023-05-16T08:26:18.858Z,101313.47
2023-05-16T08:28:45.796Z,101318.53
2023-05-16T08:31:12.248Z,101299.81
2023-05-16T08:33:43.127Z,101302.03
2023-05-16T08:36:10.153Z,101315.06
2023-05-16T08:38:37.317Z,101307.09
2023-05-16T08:41:04.240Z,101310.41
2023-05-16T08:43:31.195Z,101306.84
2023-05-16T08:45:57.757Z,101309.38
2023-05-16T08:48:26.645Z,101312.28
2023-05-16T08:50:56.708Z,101308.44
2023-05-16T08:53:34.505Z,101304.03
2023-05-16T08:56:01.754Z,101306.91
2023-05-16T08:58:30.390Z,101311.31
2023-05-16T09:00:57.407Z,101320.91
2023-05-16T09:03:25.219Z,101320.50
2023-05-16T09:05:52.587Z,101317.19
2023-05-16T09:08:20.574Z,101309.41
2023-05-16T09:10:47.006Z,101307.75
2023-05-16T09:13:13.958Z,101316.59
2023-05-16T09:15:41.223Z,101304.13
2023-05-16T09:18:14.263Z,101309.75
2023-05-16T09:20:50.111Z,101313.06
2023-05-16T09:23:24.706Z,101309.06
2023-05-16T09:25:53.537Z,101315.16
2023-05-16T09:28:20.998Z,101314.41
2023-05-16T09:30:47.951Z,101313.22
2023-05-16T09:33:16.590Z,101305.59
2023-05-16T09:35:45.316Z,101310.75
2023-05-16T09:38:18.343Z,101305.91
2023-05-16T09:40:46.536Z,101306.28
2023-05-16T09:43:18.959Z,101307.47
2023-05-16T09:45:49.349Z,101305.84
2023-05-16T09:48:17.450Z,101307.06
2023-05-16T09:50:57.569Z,101310.25
2023-05-16T09:53:30.182Z,101311.00
2023-05-16T09:56:08.332Z,101312.97
2023-05-16T09:58:38.143Z,101312.22
2023-05-16T10:01:05.962Z,101303.31
2023-05-16T10:03:34.951Z,101301.28
2023-05-16T10:06:05.743Z,101304.03
2023-05-16T10:08:36.373Z,101299.94
2023-05-16T10:11:04.956Z,101295.09
2023-05-16T10:13:34.703Z,101294.28
2023-05-16T10:16:08.559Z,101289.06
2023-05-16T10:18:36.484Z,101280.25
2023-05-16T10:21:11.855Z,101287.88
2023-05-16T10:23:42.636Z,101294.00
2023-05-16T10:26:11.781Z,101292.44
2023-05-16T10:28:39.965Z,101297.75
2023-05-16T10:31:08.371Z,101302.63
2023-05-16T10:33:42.957Z,101304.63
2023-05-16T10:36:11.227Z,101295.78
2023-05-16T10:38:39.014Z,101292.97
2023-05-16T10:41:07.023Z,101288.91
2023-05-16T10:43:33.796Z,101292.53
2023-05-16T10:46:16.566Z,101289.69
2023-05-16T10:48:42.986Z,101280.91
2023-05-16T10:51:39.291Z,101274.06
2023-05-16T10:54:15.564Z,101287.00
2023-05-16T10:56:43.572Z,101286.69
2023-05-16T10:59:27.299Z,101289.88
2023-05-16T11:01:57.550Z,101287.50
2023-05-16T11:04:24.214Z,101289.94
2023-05-16T11:06:53.460Z,101289.94
2023-05-16T11:09:23.583Z,101291.59
2023-05-16T11:11:59.362Z,101291.59
2023-05-16T11:14:25.897Z,101296.44
2023-05-16T11:17:11.076Z,101288.75
2023-05-16T11:19:45.426Z,101283.94
2023-05-16T11:22:22.893Z,101282.34
2023-05-16T11:24:52.303Z,101278.00
2023-05-16T11:27:28.930Z,101279.19
2023-05-16T11:30:02.007Z,101269.97
2023-05-16T11:32:30.876Z,101277.72
2023-05-16T11:34:58.148Z,101285.00
2023-05-16T11:37:25.929Z,101286.69
2023-05-16T11:39:52.544Z,101279.91
2023-05-16T11:42:19.328Z,101283.56
2023-05-16T11:44:46.099Z,101286.81
2023-05-16T11:47:12.720Z,101282.00
2023-05-16T11:49:39.636Z,101297.66
2023-05-16T11:52:08.532Z,101298.06
2023-05-16T11:54:35.184Z,101298.41
2023-05-16T11:57:02.207Z,101292.75
2023-05-16T11:59:30.030Z,101295.13
2023-05-16T12:01:56.549Z,101295.91
2023-05-16T12:04:23.575Z,101303.13
2023-05-16T12:07:00.148Z,101297.41
2023-05-16T12:09:29.264Z,101293.38
2023-05-16T12:11:55.988Z,101295.41
2023-05-16T12:14:23.858Z,101296.22
2023-05-16T12:16:52.912Z,101297.00
2023-05-16T12:19:20.349Z,101301.88
2023-05-16T12:21:46.948Z,101299.50
2023-05-16T12:24:14.692Z,101302.72
2023-05-16T12:26:42.465Z,101300.34
2023-05-16T12:29:09.054Z,101286.28
2023-05-16T12:31:41.979Z,101287.13
2023-05-16T12:34:21.901Z,101280.34
2023-05-16T12:36:51.906Z,101272.75
2023-05-16T12:39:18.635Z,101283.72
2023-05-16T12:41:45.236Z,101289.44
2023-05-16T12:44:18.025Z,101290.75
2023-05-16T12:46:50.286Z,101278.31
2023-05-16T12:49:20.926Z,101283.19
2023-05-16T12:51:56.023Z,101287.25
2023-05-16T12:54:23.020Z,101286.50
2023-05-16T12:56:49.762Z,101282.47
2023-05-16T12:59:16.688Z,101274.00
2023-05-16T13:01:44.494Z,101285.66
2023-05-16T13:04:16.851Z,101283.69
2023-05-16T13:06:57.571Z,101288.88
2023-05-16T13:09:24.689Z,101292.91
2023-05-16T13:11:51.264Z,101286.41
2023-05-16T13:14:18.737Z,101292.41
2023-05-16T13:16:45.954Z,101279.91
2023-05-16T13:19:12.612Z,101282.75
2023-05-16T13:21:39.029Z,101280.31
2023-05-16T13:24:06.019Z,101274.66
2023-05-16T13:26:32.741Z,101279.91
2023-05-16T13:28:59.526Z,101277.50
2023-05-16T13:31:26.044Z,101286.00
2023-05-16T13:33:52.690Z,101280.41
2023-05-16T13:36:19.153Z,101279.28
2023-05-16T13:38:45.640Z,101289.41
2023-05-16T13:41:12.246Z,101289.41
2023-05-16T13:43:40.202Z,101287.03
2023-05-16T13:46:07.269Z,101292.28
2023-05-16T13:48:33.868Z,101295.91
2023-05-16T13:51:00.278Z,101295.91
2023-05-16T13:53:26.956Z,101296.34
2023-05-16T13:55:53.726Z,101299.97
2023-05-16T13:58:20.386Z,101299.16
2023-05-16T14:00:48.560Z,101304.81
2023-05-16T14:03:15.405Z,101288.69
2023-05-16T14:05:42.605Z,101287.09
2023-05-16T14:08:09.047Z,101296.38
2023-05-16T14:10:35.651Z,101303.66
2023-05-16T14:13:02.469Z,101302.03
2023-05-16T14:15:29.150Z,101311.31
2023-05-16T14:17:55.841Z,101308.50
2023-05-16T14:20:22.833Z,101305.31
2023-05-16T14:22:49.285Z,101303.28
2023-05-16T14:25:15.844Z,101301.66
2023-05-16T14:27:42.291Z,101297.66
2023-05-16T14:30:09.538Z,101310.97
2023-05-16T14:32:36.327Z,101304.50
2023-05-16T14:35:05.258Z,101300.88
2023-05-16T14:37:31.831Z,101304.09
2023-05-16T14:39:59.847Z,101308.50
2023-05-16T14:42:26.754Z,101305.63
2023-05-16T14:44:53.263Z,101306.81
2023-05-16T14:47:19.941Z,101322.09
2023-05-16T14:49:46.409Z,101315.97
2023-05-16T14:52:13.031Z,101321.59
2023-05-16T14:54:41.333Z,101315.50
2023-05-16T14:57:08.362Z,101313.06
2023-05-16T14:59:34.776Z,101320.72
2023-05-16T15:02:01.389Z,101322.72
2023-05-16T15:04:28.873Z,101319.91
2023-05-16T15:06:55.944Z,101328.81
2023-05-16T15:09:22.636Z,101324.78
2023-05-16T15:11:49.116Z,101326.78
2023-05-16T15:14:15.972Z,101323.97
2023-05-16T15:16:43.434Z,101332.47
2023-05-16T15:19:10.141Z,101338.13
2023-05-16T15:21:37.230Z,101330.06
2023-05-16T15:24:03.763Z,101338.94
2023-05-16T15:26:31.077Z,101336.50
2023-05-16T15:28:57.948Z,101336.88
2023-05-16T15:31:24.408Z,101347.72
2023-05-16T15:33:51.179Z,101349.72
2023-05-16T15:36:17.722Z,101350.94
2023-05-16T15:38:45.622Z,101345.66
2023-05-16T15:43:42.512Z,101360.16
2023-05-16T15:46:11.091Z,101354.91
2023-05-16T15:48:38.304Z,101360.53
2023-05-16T15:51:04.976Z,101367.41
2023-05-16T15:53:31.405Z,101371.38
2023-05-16T15:55:57.882Z,101381.00
2023-05-16T15:58:24.331Z,101381.78
2023-05-16T16:00:51.186Z,101387.75
2023-05-16T16:03:17.710Z,101386.44
2023-05-16T16:05:44.239Z,101386.38
2023-05-16T16:08:10.784Z,101393.16
2023-05-16T16:10:37.512Z,101394.69
2023-05-16T16:13:04.667Z,101388.59
2023-05-16T16:15:33.502Z,101399.81
2023-05-16T16:18:00.812Z,101396.13
2023-05-16T16:20:27.723Z,101400.06
2023-05-16T16:22:54.344Z,101400.81
2023-05-16T16:25:20.813Z,101399.97
2023-05-16T16:27:47.217Z,101401.53
2023-05-16T16:30:13.769Z,101390.66
2023-05-16T16:32:41.148Z,101398.66
2023-05-16T16:35:07.925Z,101397.44
2023-05-16T16:37:34.869Z,101388.53
2023-05-16T16:40:01.508Z,101398.19
2023-05-16T16:42:30.380Z,101405.38
2023-05-16T16:44:57.243Z,101403.72
2023-05-16T16:47:25.285Z,101400.47
2023-05-16T16:50:01.449Z,101418.94
2023-05-16T16:52:28.280Z,101411.31
2023-05-16T16:54:57.797Z,101408.44
2023-05-16T16:57:24.409Z,101414.06
2023-05-16T16:59:51.196Z,101416.44
2023-05-16T17:02:19.080Z,101422.03
2023-05-16T17:04:45.537Z,101429.28
2023-05-16T17:07:11.987Z,101433.31
2023-05-16T17:09:42.103Z,101440.09
2023-05-16T17:12:14.840Z,101443.31
2023-05-16T17:14:42.834Z,101440.41
2023-05-16T17:17:09.316Z,101447.25
2023-05-16T17:19:35.881Z,101442.31
2023-05-16T17:22:02.493Z,101456.78
2023-05-16T17:24:29.110Z,101462.34
2023-05-16T17:26:57.191Z,101457.03
2023-05-16T17:29:23.962Z,101453.31
2023-05-16T17:31:50.687Z,101454.06
2023-05-16T17:34:17.310Z,101463.28
2023-05-16T17:36:43.788Z,101456.38
2023-05-16T17:39:10.926Z,101455.16
2023-05-16T17:41:38.657Z,101474.38
2023-05-16T17:44:06.966Z,101461.91
2023-05-16T17:46:34.948Z,101464.63
2023-05-16T17:49:01.433Z,101474.25
2023-05-16T17:51:28.356Z,101470.19
2023-05-16T17:53:54.899Z,101478.19
2023-05-16T17:56:22.667Z,101475.72
2023-05-16T17:58:49.199Z,101464.06
2023-05-16T18:01:15.603Z,101473.69
2023-05-16T18:03:43.414Z,101472.06
2023-05-16T18:06:11.607Z,101475.59
2023-05-16T18:08:38.425Z,101479.63
2023-05-16T18:11:05.311Z,101477.16
2023-05-16T18:13:33.052Z,101477.16
2023-05-16T18:15:59.705Z,101481.97
2023-05-16T18:18:32.345Z,101477.53
2023-05-16T18:20:59.800Z,101485.97
2023-05-16T18:23:28.860Z,101487.97
2023-05-16T18:25:55.383Z,101480.72
2023-05-16T18:28:23.062Z,101493.16
2023-05-16T18:30:49.437Z,101495.16
2023-05-16T18:33:16.311Z,101496.34
2023-05-16T18:35:43.131Z,101497.53
2023-05-16T18:38:20.307Z,101493.09
2023-05-16T18:40:55.254Z,101492.25
2023-05-16T18:43:22.719Z,101495.06
2023-05-16T18:45:50.603Z,101487.81
2023-05-16T18:48:17.707Z,101495.41
2023-05-16T18:50:45.000Z,101494.97
2023-05-16T18:53:12.306Z,101501.41
2023-05-16T18:55:40.305Z,101502.16
2023-05-16T18:58:07.036Z,101499.72
2023-05-16T19:00:34.502Z,101504.09
2023-05-16T19:03:01.629Z,101508.44
2023-05-16T19:05:28.547Z,101514.44
2023-05-16T19:07:55.234Z,101509.56
2023-05-16T19:10:22.292Z,101504.31
2023-05-16T19:12:49.334Z,101518.72
2023-05-16T19:15:15.938Z,101517.91
2023-05-16T19:17:42.659Z,101525.91
2023-05-16T19:20:10.812Z,101527.09
2023-05-16T19:22:37.677Z,101534.72
2023-05-16T19:25:06.927Z,101537.53
2023-05-16T19:27:33.658Z,101543.50
2023-05-16T19:30:01.486Z,101538.69
2023-05-16T19:32:30.237Z,101541.88
2023-05-16T19:34:57.453Z,101537.44
2023-05-16T19:37:24.596Z,101546.25
2023-05-16T19:39:52.411Z,101540.97
2023-05-16T19:42:18.831Z,101539.72
2023-05-16T19:44:45.375Z,101548.50
2023-05-16T19:47:12.057Z,101545.28
2023-05-16T19:49:38.754Z,101550.47
2023-05-16T19:52:09.031Z,101546.00
2023-05-16T19:54:35.397Z,101542.75
2023-05-16T19:57:04.251Z,101544.38
2023-05-16T19:59:32.758Z,101555.63
2023-05-16T20:02:02.321Z,101547.19
2023-05-16T20:04:29.060Z,101546.38
2023-05-16T20:06:55.948Z,101549.19
2023-05-16T20:09:22.479Z,101555.63
2023-05-16T20:11:49.616Z,101548.38
2023-05-16T20:14:16.080Z,101556.81
2023-05-16T20:16:43.177Z,101548.75
2023-05-16T20:19:09.944Z,101555.53
2023-05-16T20:21:37.026Z,101551.47
2023-05-16T20:24:06.827Z,101557.09
2023-05-16T20:26:33.744Z,101559.44
2023-05-16T20:29:02.656Z,101559.81
2023-05-16T20:31:29.706Z,101565.81
2023-05-16T20:33:56.173Z,101568.59
2023-05-16T20:36:23.922Z,101572.59
2023-05-16T20:38:51.777Z,101574.22
2023-05-16T20:41:21.875Z,101577.03
2023-05-16T20:43:50.465Z,101581.47
2023-05-16T20:46:17.124Z,101578.66
2023-05-16T20:48:43.942Z,101577.03
2023-05-16T20:51:10.690Z,101577.03
2023-05-16T20:53:38.339Z,101574.59
2023-05-16T20:56:05.143Z,101575.41
2023-05-16T20:58:32.184Z,101581.75
2023-05-16T21:00:58.634Z,101582.47
2023-05-16T21:03:25.467Z,101585.66
2023-05-16T21:05:54.589Z,101587.22
2023-05-16T21:08:21.028Z,101581.94
2023-05-16T21:10:47.435Z,101586.31
2023-05-16T21:13:13.949Z,101588.31
2023-05-16T21:15:40.446Z,101592.66
2023-05-16T21:18:07.168Z,101590.56
2023-05-16T21:20:33.845Z,101584.50
2023-05-16T21:23:00.805Z,101585.22
2023-05-16T21:25:28.686Z,101595.63
2023-05-16T21:27:56.238Z,101583.16
2023-05-16T21:30:22.973Z,101591.09
2023-05-16T21:32:50.869Z,101587.84
2023-05-16T21:35:17.429Z,101584.22
2023-05-16T21:37:43.867Z,101587.75
2023-05-16T21:40:16.660Z,101577.22
2023-05-16T21:42:43.326Z,101583.56
2023-05-16T21:45:15.673Z,101581.47
2023-05-16T21:47:43.184Z,101595.44
2023-05-16T21:50:13.111Z,101591.72
2023-05-16T21:52:39.984Z,101599.22
2023-05-16T21:55:08.981Z,101594.69
2023-05-16T21:57:35.975Z,101591.31
2023-05-16T22:00:09.771Z,101595.22
2023-05-16T22:02:37.241Z,101593.47
2023-05-16T22:05:04.782Z,101594.56
2023-05-16T22:07:31.689Z,101593.63
2023-05-16T22:10:01.741Z,101593.09
2023-05-16T22:12:28.222Z,101591.34
2023-05-16T22:14:54.998Z,101597.66
2023-05-16T22:17:21.531Z,101585.53
2023-05-16T22:19:48.278Z,101587.44
2023-05-16T22:22:15.067Z,101594.56
2023-05-16T22:24:41.764Z,101595.25
2023-05-16T22:27:08.168Z,101589.91
2023-05-16T22:29:38.176Z,101602.69
2023-05-16T22:32:10.037Z,101607.72
2023-05-16T22:34:42.503Z,101608.06
2023-05-16T22:37:09.580Z,101613.59
2023-05-16T22:39:36.348Z,101603.41
2023-05-16T22:42:03.747Z,101608.06
2023-05-16T22:44:30.256Z,101610.31
2023-05-16T22:47:03.650Z,101605.78
2023-05-16T22:49:30.056Z,101611.25
2023-05-16T22:52:00.605Z,101607.53
2023-05-16T22:54:27.043Z,101607.75
2023-05-16T22:56:53.749Z,101617.72
2023-05-16T22:59:20.184Z,101609.53
2023-05-16T23:01:48.754Z,101613.03
2023-05-16T23:04:15.318Z,101619.34
2023-05-16T23:06:44.750Z,101605.69
2023-05-16T23:09:11.563Z,101619.47
2023-05-16T23:11:40.469Z,101621.69
2023-05-16T23:14:06.861Z,101627.53
2023-05-16T23:16:33.295Z,101626.59
2023-05-16T23:19:00.186Z,101623.69
2023-05-16T23:21:30.596Z,101629.97
2023-05-16T23:23:57.141Z,101622.25
2023-05-16T23:26:23.489Z,101634.63
2023-05-16T23:28:50.301Z,101636.97
2023-05-16T23:31:17.485Z,101628.44
2023-05-16T23:33:43.919Z,101627.16
2023-05-16T23:36:11.480Z,101628.69
2023-05-16T23:38:38.448Z,101636.63
2023-05-16T23:41:05.095Z,101632.53
2023-05-16T23:43:31.553Z,101632.88
2023-05-16T23:45:58.238Z,101634.38
2023-05-16T23:48:24.851Z,101633.09
2023-05-16T23:50:51.864Z,101642.97
2023-05-16T23:53:18.304Z,101638.06
2023-05-16T23:55:47.193Z,101641.56
2023-05-16T23:58:13.647Z,101637.13
